createdAt,value
2019-01-26T00:02:29.639Z,100220.00
2019-01-26T00:04:59.750Z,100215.00
2019-01-26T00:07:29.840Z,100212.00
2019-01-26T00:09:59.951Z,100221.00
2019-01-26T00:12:30.048Z,100213.00
2019-01-26T00:15:00.237Z,100200.00
2019-01-26T00:17:30.268Z,100195.00
2019-01-26T00:20:00.483Z,100185.00
2019-01-26T00:22:30.563Z,100183.00
2019-01-26T00:25:00.678Z,100178.00
2019-01-26T00:27:30.778Z,100169.00
2019-01-26T00:30:00.893Z,100149.00
2019-01-26T00:32:30.992Z,100141.00
2019-01-26T00:35:01.100Z,100144.00
2019-01-26T00:37:31.204Z,100139.00
2019-01-26T00:40:01.326Z,100121.00
2019-01-26T00:42:31.416Z,100132.00
2019-01-26T00:45:01.528Z,100105.00
2019-01-26T00:47:31.729Z,100100.00
2019-01-26T00:50:01.899Z,100094.00
2019-01-26T00:52:32.009Z,100092.00
2019-01-26T00:55:02.121Z,100085.00
2019-01-26T00:57:32.224Z,100094.00
2019-01-26T01:00:02.333Z,100084.00
2019-01-26T01:02:32.426Z,100067.00
2019-01-26T01:05:02.537Z,100084.00
2019-01-26T01:07:32.635Z,100081.00
2019-01-26T01:10:03.093Z,100069.00
2019-01-26T01:12:33.186Z,100059.00
2019-01-26T01:15:03.975Z,100075.00
2019-01-26T01:17:34.066Z,100064.00
2019-01-26T01:20:07.393Z,100057.00
2019-01-26T01:22:37.490Z,100049.00
2019-01-26T01:25:10.919Z,100043.00
2019-01-26T01:27:41.008Z,100047.00
2019-01-26T01:30:24.972Z,100051.00
2019-01-26T01:32:55.061Z,100044.00
2019-01-26T01:35:25.178Z,100039.00
2019-01-26T01:37:55.278Z,100021.00
2019-01-26T01:40:25.390Z,100013.00
2019-01-26T01:42:55.483Z,100008.00
2019-01-26T01:45:25.597Z,99996.00
2019-01-26T01:47:55.679Z,99992.00
2019-01-26T01:50:31.265Z,99982.00
2019-01-26T01:53:01.353Z,99968.00
2019-01-26T01:55:31.838Z,99984.00
2019-01-26T01:58:01.924Z,99974.00
2019-01-26T02:00:32.034Z,99967.00
2019-01-26T02:03:02.119Z,99967.00
2019-01-26T02:05:32.237Z,99966.00
2019-01-26T02:08:02.324Z,99965.00
2019-01-26T02:10:32.497Z,99958.00
2019-01-26T02:13:02.586Z,99948.00
2019-01-26T02:15:32.704Z,99940.00
2019-01-26T02:18:02.811Z,99940.00
2019-01-26T02:20:32.903Z,99954.00
2019-01-26T02:23:03.018Z,99940.00
2019-01-26T02:25:33.112Z,99920.00
2019-01-26T02:28:03.233Z,99910.00
2019-01-26T02:30:33.333Z,99918.00
2019-01-26T02:33:03.446Z,99906.00
2019-01-26T02:35:33.537Z,99893.00
2019-01-26T02:38:04.718Z,99887.00
2019-01-26T02:40:34.813Z,99888.00
2019-01-26T02:43:04.925Z,99877.00
2019-01-26T02:45:35.015Z,99888.00
2019-01-26T02:48:05.123Z,99886.00
2019-01-26T02:50:35.209Z,99876.00
2019-01-26T02:53:05.329Z,99866.00
2019-01-26T02:55:35.443Z,99860.00
2019-01-26T02:58:05.555Z,99865.00
2019-01-26T03:00:35.644Z,99863.00
2019-01-26T03:03:05.753Z,99862.00
2019-01-26T03:05:35.843Z,99848.00
2019-01-26T03:08:05.949Z,99846.00
2019-01-26T03:10:36.046Z,99847.00
2019-01-26T03:13:06.161Z,99833.00
2019-01-26T03:15:36.298Z,99830.00
2019-01-26T03:18:06.412Z,99835.00
2019-01-26T03:20:36.495Z,99824.00
2019-01-26T03:23:06.605Z,99832.00
2019-01-26T03:25:36.764Z,99819.00
2019-01-26T03:28:06.872Z,99823.00
2019-01-26T03:30:36.968Z,99820.00
2019-01-26T03:33:07.348Z,99827.00
2019-01-26T03:35:37.438Z,99826.00
2019-01-26T03:38:07.549Z,99821.00
2019-01-26T03:40:37.642Z,99811.00
2019-01-26T03:43:07.758Z,99813.00
2019-01-26T03:45:37.848Z,99799.00
2019-01-26T03:48:07.956Z,99802.00
2019-01-26T03:50:38.045Z,99804.00
2019-01-26T03:53:08.161Z,99792.00
2019-01-26T03:55:38.249Z,99798.00
2019-01-26T03:58:08.363Z,99788.00
2019-01-26T04:00:38.449Z,99796.00
2019-01-26T04:03:08.561Z,99788.00
2019-01-26T04:05:38.650Z,99781.00
2019-01-26T04:08:08.766Z,99773.00
2019-01-26T04:10:38.857Z,99771.00
2019-01-26T04:13:08.982Z,99766.00
2019-01-26T04:15:39.053Z,99769.00
2019-01-26T04:18:09.161Z,99748.00
2019-01-26T04:20:39.256Z,99755.00
2019-01-26T04:23:09.362Z,99756.00
2019-01-26T04:25:39.453Z,99750.00
2019-01-26T04:28:11.197Z,99745.00
2019-01-26T04:30:41.282Z,99749.00
2019-01-26T04:33:11.394Z,99748.00
2019-01-26T04:35:41.484Z,99738.00
2019-01-26T04:38:11.598Z,99735.00
2019-01-26T04:40:41.681Z,99738.00
2019-01-26T04:43:11.793Z,99741.00
2019-01-26T04:45:41.893Z,99736.00
2019-01-26T04:48:12.020Z,99740.00
2019-01-26T04:50:42.531Z,99735.00
2019-01-26T04:53:18.249Z,99726.00
2019-01-26T04:55:48.335Z,99722.00
2019-01-26T04:58:18.445Z,99713.00
2019-01-26T05:00:48.540Z,99721.00
2019-01-26T05:03:18.664Z,99712.00
2019-01-26T05:05:48.785Z,99716.00
2019-01-26T05:08:18.884Z,99719.00
2019-01-26T05:10:49.012Z,99719.00
2019-01-26T05:13:19.090Z,99727.00
2019-01-26T05:15:49.205Z,99718.00
2019-01-26T05:18:19.301Z,99718.00
2019-01-26T05:20:49.403Z,99714.00
2019-01-26T05:23:19.494Z,99714.00
2019-01-26T05:25:49.597Z,99720.00
2019-01-26T05:28:19.684Z,99713.00
2019-01-26T05:30:49.794Z,99717.00
2019-01-26T05:33:20.866Z,99708.00
2019-01-26T05:35:50.963Z,99707.00
2019-01-26T05:38:21.055Z,99703.00
2019-01-26T05:40:51.172Z,99705.00
2019-01-26T05:43:40.683Z,99697.00
2019-01-26T05:46:10.893Z,99709.00
2019-01-26T05:48:40.981Z,99695.00
2019-01-26T05:51:11.103Z,99695.00
2019-01-26T05:53:41.193Z,99697.00
2019-01-26T05:56:11.318Z,99688.00
2019-01-26T05:58:41.474Z,99694.00
2019-01-26T06:01:11.609Z,99695.00
2019-01-26T06:03:41.709Z,99696.00
2019-01-26T06:06:11.811Z,99690.00
2019-01-26T06:08:41.896Z,99687.00
2019-01-26T06:11:12.000Z,99690.00
2019-01-26T06:13:42.081Z,99691.00
2019-01-26T06:16:12.194Z,99690.00
2019-01-26T06:18:42.280Z,99691.00
2019-01-26T06:21:12.389Z,99683.00
2019-01-26T06:23:42.475Z,99685.00
2019-01-26T06:26:13.028Z,99682.00
2019-01-26T06:28:43.250Z,99697.00
2019-01-26T06:31:13.350Z,99682.00
2019-01-26T06:33:43.436Z,99680.00
2019-01-26T06:36:13.546Z,99680.00
2019-01-26T06:38:43.626Z,99673.00
2019-01-26T06:41:13.732Z,99672.00
2019-01-26T06:43:43.810Z,99667.00
2019-01-26T06:46:13.917Z,99667.00
2019-01-26T06:48:45.287Z,99678.00
2019-01-26T06:51:15.392Z,99672.00
2019-01-26T06:53:45.478Z,99677.00
2019-01-26T06:56:15.586Z,99685.00
2019-01-26T06:58:46.643Z,99679.00
2019-01-26T07:01:16.747Z,99686.00
2019-01-26T07:03:46.833Z,99683.00
2019-01-26T07:06:18.701Z,99673.00
2019-01-26T07:08:48.788Z,99674.00
2019-01-26T07:11:18.886Z,99670.00
2019-01-26T07:13:48.961Z,99663.00
2019-01-26T07:16:20.697Z,99664.00
2019-01-26T07:18:50.776Z,99667.00
2019-01-26T07:21:20.890Z,99668.00
2019-01-26T07:23:50.966Z,99683.00
2019-01-26T07:26:21.066Z,99678.00
2019-01-26T07:28:51.146Z,99675.00
2019-01-26T07:31:21.246Z,99676.00
2019-01-26T07:33:51.323Z,99675.00
2019-01-26T07:36:21.426Z,99676.00
2019-01-26T07:38:51.502Z,99673.00
2019-01-26T07:41:21.601Z,99676.00
2019-01-26T07:43:51.682Z,99678.00
2019-01-26T07:46:21.785Z,99685.00
2019-01-26T07:48:51.866Z,99681.00
2019-01-26T07:51:22.037Z,99682.00
2019-01-26T07:53:52.087Z,99688.00
2019-01-26T07:56:22.188Z,99689.00
2019-01-26T07:58:52.300Z,99682.00
2019-01-26T08:01:22.402Z,99693.00
2019-01-26T08:03:52.477Z,99688.00
2019-01-26T08:06:22.576Z,99684.00
2019-01-26T08:08:52.661Z,99676.00
2019-01-26T08:11:22.763Z,99688.00
2019-01-26T08:13:52.833Z,99686.00
2019-01-26T08:16:22.935Z,99686.00
2019-01-26T08:18:53.136Z,99694.00
2019-01-26T08:21:23.189Z,99688.00
2019-01-26T08:23:53.266Z,99686.00
2019-01-26T08:26:23.373Z,99676.00
2019-01-26T08:28:53.451Z,99678.00
2019-01-26T08:31:23.551Z,99685.00
2019-01-26T08:33:53.763Z,99674.00
2019-01-26T08:36:23.901Z,99681.00
2019-01-26T08:38:53.980Z,99679.00
2019-01-26T08:41:25.149Z,99670.00
2019-01-26T08:43:55.227Z,99671.00
2019-01-26T08:46:25.325Z,99670.00
2019-01-26T08:48:55.402Z,99677.00
2019-01-26T08:51:25.577Z,99679.00
2019-01-26T08:53:55.667Z,99681.00
2019-01-26T08:56:25.750Z,99679.00
2019-01-26T08:58:55.870Z,99682.00
2019-01-26T09:01:38.793Z,99674.00
2019-01-26T09:04:16.237Z,99679.00
2019-01-26T09:06:58.293Z,99683.00
2019-01-26T09:09:28.378Z,99677.00
2019-01-26T09:11:58.481Z,99688.00
2019-01-26T09:14:28.558Z,99680.00
2019-01-26T09:17:11.256Z,99678.00
2019-01-26T09:19:41.337Z,99670.00
2019-01-26T09:22:11.496Z,99681.00
2019-01-26T09:24:41.568Z,99690.00
2019-01-26T09:27:11.753Z,99682.00
2019-01-26T09:29:42.646Z,99691.00
2019-01-26T09:32:12.879Z,99692.00
2019-01-26T09:34:43.007Z,99687.00
2019-01-26T09:37:13.187Z,99693.00
2019-01-26T09:39:43.253Z,99688.00
2019-01-26T09:42:13.361Z,99685.00
2019-01-26T09:44:43.439Z,99682.00
2019-01-26T09:47:13.554Z,99683.00
2019-01-26T09:49:43.632Z,99686.00
2019-01-26T09:52:13.741Z,99686.00
2019-01-26T09:54:43.828Z,99693.00
2019-01-26T09:57:13.931Z,99681.00
2019-01-26T09:59:44.094Z,99685.00
2019-01-26T10:02:14.221Z,99682.00
2019-01-26T10:04:44.293Z,99676.00
2019-01-26T10:07:14.408Z,99673.00
2019-01-26T10:09:44.482Z,99672.00
2019-01-26T10:12:14.589Z,99676.00
2019-01-26T10:14:44.756Z,99668.00
2019-01-26T10:17:14.863Z,99665.00
2019-01-26T10:19:45.016Z,99666.00
2019-01-26T10:22:15.122Z,99667.00
2019-01-26T10:24:45.201Z,99662.00
2019-01-26T10:27:15.318Z,99669.00
2019-01-26T10:29:45.466Z,99665.00
2019-01-26T10:32:15.557Z,99662.00
2019-01-26T10:34:45.653Z,99663.00
2019-01-26T10:37:16.731Z,99667.00
2019-01-26T10:39:46.811Z,99662.00
2019-01-26T10:42:18.830Z,99660.00
2019-01-26T10:44:49.324Z,99659.00
2019-01-26T10:47:19.463Z,99661.00
2019-01-26T10:49:49.543Z,99660.00
2019-01-26T10:52:19.655Z,99665.00
2019-01-26T10:55:02.191Z,99659.00
2019-01-26T10:57:32.333Z,99658.00
2019-01-26T11:00:02.407Z,99668.00
2019-01-26T11:02:32.582Z,99665.00
2019-01-26T11:05:02.663Z,99670.00
2019-01-26T11:07:32.778Z,99668.00
2019-01-26T11:10:03.228Z,99668.00
2019-01-26T11:12:33.336Z,99666.00
2019-01-26T11:15:03.419Z,99667.00
2019-01-26T11:17:33.528Z,99664.00
2019-01-26T11:20:04.484Z,99669.00
2019-01-26T11:22:34.583Z,99667.00
2019-01-26T11:25:08.993Z,99656.00
2019-01-26T11:27:39.102Z,99656.00
2019-01-26T11:30:20.430Z,99647.00
2019-01-26T11:32:50.530Z,99657.00
2019-01-26T11:35:23.613Z,99650.00
2019-01-26T11:37:53.726Z,99642.00
2019-01-26T11:40:23.867Z,99646.00
2019-01-26T11:42:53.975Z,99645.00
2019-01-26T11:45:41.802Z,99652.00
2019-01-26T11:48:13.599Z,99649.00
2019-01-26T11:51:01.627Z,99644.00
2019-01-26T11:53:31.743Z,99644.00
2019-01-26T11:56:03.459Z,99648.00
2019-01-26T11:58:33.562Z,99647.00
2019-01-26T12:01:21.785Z,99644.00
2019-01-26T12:03:53.517Z,99638.00
2019-01-26T12:06:25.272Z,99641.00
2019-01-26T12:08:55.375Z,99642.00
2019-01-26T12:11:25.504Z,99634.00
2019-01-26T12:13:55.595Z,99647.00
2019-01-26T12:16:27.002Z,99638.00
2019-01-26T12:18:58.451Z,99628.00
2019-01-26T12:21:28.599Z,99633.00
2019-01-26T12:23:58.699Z,99625.00
2019-01-26T12:26:28.866Z,99622.00
2019-01-26T12:28:58.970Z,99624.00
2019-01-26T12:31:29.145Z,99626.00
2019-01-26T12:33:59.278Z,99628.00
2019-01-26T12:36:29.524Z,99625.00
2019-01-26T12:38:59.656Z,99630.00
2019-01-26T12:41:29.792Z,99620.00
2019-01-26T12:43:59.890Z,99619.00
2019-01-26T12:46:30.017Z,99620.00
2019-01-26T12:49:00.116Z,99624.00
2019-01-26T12:51:30.241Z,99628.00
2019-01-26T12:54:00.333Z,99632.00
2019-01-26T12:56:31.417Z,99626.00
2019-01-26T12:59:01.510Z,99637.00
2019-01-26T13:01:31.635Z,99634.00
2019-01-26T13:04:01.739Z,99629.00
2019-01-26T13:06:31.870Z,99633.00
2019-01-26T13:09:02.108Z,99629.00
2019-01-26T13:11:33.467Z,99623.00
2019-01-26T13:14:03.566Z,99622.00
2019-01-26T13:16:33.749Z,99622.00
2019-01-26T13:19:03.961Z,99622.00
2019-01-26T13:21:34.070Z,99612.00
2019-01-26T13:24:04.442Z,99615.00
2019-01-26T13:26:34.562Z,99618.00
2019-01-26T13:29:05.130Z,99617.00
2019-01-26T13:31:35.251Z,99622.00
2019-01-26T13:34:05.358Z,99615.00
2019-01-26T13:36:35.529Z,99613.00
2019-01-26T13:39:08.097Z,99613.00
2019-01-26T13:41:38.446Z,99605.00
2019-01-26T13:44:08.780Z,99612.00
2019-01-26T13:46:38.936Z,99610.00
2019-01-26T13:49:09.037Z,99612.00
2019-01-26T13:51:39.255Z,99606.00
2019-01-26T13:54:09.354Z,99611.00
2019-01-26T13:56:39.432Z,99613.00
2019-01-26T13:59:09.536Z,99610.00
2019-01-26T14:01:39.677Z,99615.00
2019-01-26T14:04:09.824Z,99612.00
2019-01-26T14:06:39.902Z,99610.00
2019-01-26T14:09:10.020Z,99611.00
2019-01-26T14:11:40.117Z,99613.00
2019-01-26T14:14:10.192Z,99604.00
2019-01-26T14:16:40.287Z,99604.00
2019-01-26T14:19:10.425Z,99613.00
2019-01-26T14:21:40.539Z,99609.00
2019-01-26T14:24:10.676Z,99604.00
2019-01-26T14:26:40.770Z,99602.00
2019-01-26T14:29:10.840Z,99607.00
2019-01-26T14:31:40.963Z,99605.00
2019-01-26T14:34:11.035Z,99609.00
2019-01-26T14:36:41.151Z,99596.00
2019-01-26T14:39:11.237Z,99600.00
2019-01-26T14:41:41.433Z,99594.00
2019-01-26T14:44:11.514Z,99595.00
2019-01-26T14:46:41.882Z,99592.00
2019-01-26T14:49:11.928Z,99597.00
2019-01-26T14:51:42.240Z,99595.00
2019-01-26T14:54:13.382Z,99595.00
2019-01-26T14:56:43.588Z,99592.00
2019-01-26T14:59:13.658Z,99588.00
2019-01-26T15:01:43.904Z,99588.00
2019-01-26T15:04:13.972Z,99599.00
2019-01-26T15:06:44.306Z,99592.00
2019-01-26T15:09:15.468Z,99592.00
2019-01-26T15:11:45.655Z,99590.00
2019-01-26T15:14:15.711Z,99591.00
2019-01-26T15:16:45.890Z,99584.00
2019-01-26T15:19:15.963Z,99577.00
2019-01-26T15:21:46.434Z,99580.00
2019-01-26T15:24:16.490Z,99577.00
2019-01-26T15:26:46.714Z,99585.00
2019-01-26T15:29:17.215Z,99571.00
2019-01-26T15:31:47.336Z,99576.00
2019-01-26T15:34:17.487Z,99569.00
2019-01-26T15:36:47.754Z,99571.00
2019-01-26T15:39:17.813Z,99568.00
2019-01-26T15:41:48.002Z,99580.00
2019-01-26T15:44:18.084Z,99570.00
2019-01-26T15:46:48.324Z,99568.00
2019-01-26T15:49:18.460Z,99560.00
2019-01-26T15:51:48.698Z,99570.00
2019-01-26T15:54:18.766Z,99579.00
2019-01-26T15:56:48.899Z,99569.00
2019-01-26T15:59:18.971Z,99565.00
2019-01-26T16:01:49.148Z,99575.00
2019-01-26T16:04:19.315Z,99575.00
2019-01-26T16:06:49.492Z,99572.00
2019-01-26T16:09:19.565Z,99573.00
2019-01-26T16:11:49.687Z,99570.00
2019-01-26T16:14:19.764Z,99572.00
2019-01-26T16:16:49.993Z,99565.00
2019-01-26T16:19:20.051Z,99567.00
2019-01-26T16:21:50.189Z,99567.00
2019-01-26T16:24:20.262Z,99564.00
2019-01-26T16:26:50.423Z,99562.00
2019-01-26T16:29:20.497Z,99557.00
2019-01-26T16:31:50.603Z,99562.00
2019-01-26T16:34:20.682Z,99552.00
2019-01-26T16:36:50.901Z,99553.00
2019-01-26T16:39:20.970Z,99550.00
2019-01-26T16:41:51.153Z,99548.00
2019-01-26T16:44:21.218Z,99549.00
2019-01-26T16:46:51.408Z,99546.00
2019-01-26T16:49:21.558Z,99544.00
2019-01-26T16:51:52.131Z,99548.00
2019-01-26T16:54:22.274Z,99536.00
2019-01-26T16:56:52.415Z,99542.00
2019-01-26T16:59:22.661Z,99541.00
2019-01-26T17:01:52.821Z,99545.00
2019-01-26T17:04:22.887Z,99541.00
2019-01-26T17:06:53.209Z,99536.00
2019-01-26T17:09:23.331Z,99529.00
2019-01-26T17:11:53.439Z,99525.00
2019-01-26T17:14:23.519Z,99514.00
2019-01-26T17:16:53.621Z,99531.00
2019-01-26T17:19:23.703Z,99532.00
2019-01-26T17:21:53.813Z,99531.00
2019-01-26T17:24:23.888Z,99521.00
2019-01-26T17:26:53.990Z,99519.00
2019-01-26T17:29:24.075Z,99526.00
2019-01-26T17:31:54.217Z,99523.00
2019-01-26T17:34:30.088Z,99528.00
2019-01-26T17:36:56.132Z,99520.00
2019-01-26T17:39:26.373Z,99520.00
2019-01-26T17:41:56.587Z,99518.00
2019-01-26T17:44:26.662Z,99508.00
2019-01-26T17:46:56.939Z,99512.00
2019-01-26T17:49:27.103Z,99510.00
2019-01-26T17:51:57.385Z,99510.00
2019-01-26T17:54:27.723Z,99509.00
2019-01-26T17:56:57.811Z,99505.00
2019-01-26T17:59:27.917Z,99496.00
2019-01-26T18:02:00.633Z,99505.00
2019-01-26T18:04:30.709Z,99500.00
2019-01-26T18:07:00.817Z,99503.00
2019-01-26T18:09:31.010Z,99490.00
2019-01-26T18:12:01.553Z,99492.00
2019-01-26T18:14:33.724Z,99495.00
2019-01-26T18:17:03.814Z,99489.00
2019-01-26T18:19:33.996Z,99484.00
2019-01-26T18:22:04.087Z,99485.00
2019-01-26T18:24:34.789Z,99480.00
2019-01-26T18:27:04.974Z,99478.00
2019-01-26T18:29:35.149Z,99481.00
2019-01-26T18:32:05.247Z,99473.00
2019-01-26T18:34:35.429Z,99471.00
2019-01-26T18:37:05.604Z,99475.00
2019-01-26T18:39:35.930Z,99468.00
2019-01-26T18:42:06.061Z,99466.00
2019-01-26T18:44:36.250Z,99465.00
2019-01-26T18:47:06.469Z,99468.00
2019-01-26T18:49:36.736Z,99463.00
2019-01-26T18:52:07.837Z,99463.00
2019-01-26T18:54:37.969Z,99459.00
2019-01-26T18:57:08.054Z,99465.00
2019-01-26T18:59:39.158Z,99458.00
2019-01-26T19:02:09.308Z,99456.00
2019-01-26T19:04:39.410Z,99461.00
2019-01-26T19:07:09.565Z,99455.00
2019-01-26T19:09:39.709Z,99457.00
2019-01-26T19:12:09.973Z,99452.00
2019-01-26T19:14:41.033Z,99449.00
2019-01-26T19:17:11.105Z,99448.00
2019-01-26T19:19:41.212Z,99440.00
2019-01-26T19:22:11.292Z,99451.00
2019-01-26T19:24:41.405Z,99438.00
2019-01-26T19:27:11.482Z,99432.00
2019-01-26T19:29:41.589Z,99439.00
2019-01-26T19:32:11.667Z,99427.00
2019-01-26T19:34:41.773Z,99428.00
2019-01-26T19:37:11.850Z,99421.00
2019-01-26T19:39:41.960Z,99423.00
2019-01-26T19:42:12.040Z,99422.00
2019-01-26T19:44:42.145Z,99411.00
2019-01-26T19:47:12.226Z,99415.00
2019-01-26T19:49:42.447Z,99407.00
2019-01-26T19:52:12.510Z,99408.00
2019-01-26T19:54:42.669Z,99404.00
2019-01-26T19:57:12.788Z,99400.00
2019-01-26T19:59:42.910Z,99401.00
2019-01-26T20:02:12.998Z,99400.00
2019-01-26T20:04:43.097Z,99402.00
2019-01-26T20:07:13.174Z,99407.00
2019-01-26T20:09:43.283Z,99400.00
2019-01-26T20:12:13.367Z,99395.00
2019-01-26T20:14:43.473Z,99395.00
2019-01-26T20:17:13.549Z,99398.00
2019-01-26T20:19:43.674Z,99396.00
2019-01-26T20:22:14.718Z,99392.00
2019-01-26T20:24:44.828Z,99392.00
2019-01-26T20:27:14.903Z,99384.00
2019-01-26T20:29:45.015Z,99380.00
2019-01-26T20:32:15.170Z,99385.00
2019-01-26T20:34:45.276Z,99383.00
2019-01-26T20:37:15.359Z,99382.00
2019-01-26T20:39:45.468Z,99382.00
2019-01-26T20:42:15.548Z,99375.00
2019-01-26T20:44:45.663Z,99375.00
2019-01-26T20:47:15.740Z,99364.00
2019-01-26T20:49:45.849Z,99367.00
2019-01-26T20:52:15.927Z,99365.00
2019-01-26T20:54:46.039Z,99359.00
2019-01-26T20:57:16.119Z,99349.00
2019-01-26T20:59:46.228Z,99352.00
2019-01-26T21:02:16.308Z,99346.00
2019-01-26T21:04:46.421Z,99347.00
2019-01-26T21:07:18.137Z,99344.00
2019-01-26T21:09:48.246Z,99337.00
2019-01-26T21:12:18.323Z,99328.00
2019-01-26T21:14:48.432Z,99336.00
2019-01-26T21:17:18.507Z,99334.00
2019-01-26T21:19:48.613Z,99332.00
2019-01-26T21:22:18.695Z,99326.00
2019-01-26T21:24:48.960Z,99329.00
2019-01-26T21:27:19.170Z,99330.00
2019-01-26T21:29:49.261Z,99325.00
2019-01-26T21:32:19.408Z,99333.00
2019-01-26T21:34:49.522Z,99332.00
2019-01-26T21:37:19.691Z,99332.00
2019-01-26T21:39:49.797Z,99326.00
2019-01-26T21:42:19.921Z,99322.00
2019-01-26T21:44:50.021Z,99315.00
2019-01-26T21:47:20.098Z,99317.00
2019-01-26T21:49:50.209Z,99316.00
2019-01-26T21:52:20.293Z,99310.00
2019-01-26T21:54:50.398Z,99305.00
2019-01-26T21:57:20.479Z,99299.00
2019-01-26T21:59:50.592Z,99308.00
2019-01-26T22:02:20.776Z,99293.00
2019-01-26T22:04:50.886Z,99289.00
2019-01-26T22:07:20.971Z,99291.00
2019-01-26T22:09:51.074Z,99291.00
2019-01-26T22:12:23.250Z,99289.00
2019-01-26T22:14:53.354Z,99288.00
2019-01-26T22:17:25.051Z,99292.00
2019-01-26T22:19:55.160Z,99288.00
2019-01-26T22:22:25.238Z,99282.00
2019-01-26T22:24:55.350Z,99286.00
2019-01-26T22:27:25.430Z,99291.00
2019-01-26T22:29:55.533Z,99288.00
2019-01-26T22:32:25.613Z,99289.00
2019-01-26T22:34:55.826Z,99279.00
2019-01-26T22:37:25.957Z,99283.00
2019-01-26T22:39:56.099Z,99270.00
2019-01-26T22:42:26.135Z,99267.00
2019-01-26T22:44:56.241Z,99259.00
2019-01-26T22:47:26.400Z,99270.00
2019-01-26T22:49:56.502Z,99262.00
2019-01-26T22:52:26.590Z,99262.00
2019-01-26T22:54:56.687Z,99263.00
2019-01-26T22:57:26.896Z,99257.00
2019-01-26T22:59:56.955Z,99255.00
2019-01-26T23:02:27.056Z,99250.00
2019-01-26T23:05:18.348Z,99251.00
2019-01-26T23:07:48.431Z,99249.00
2019-01-26T23:10:48.397Z,99249.00
2019-01-26T23:13:23.395Z,99239.00
2019-01-26T23:16:06.802Z,99240.00
2019-01-26T23:19:11.823Z,99237.00
2019-01-26T23:22:01.759Z,99244.00
2019-01-26T23:24:53.453Z,99242.00
2019-01-26T23:27:52.043Z,99243.00
2019-01-26T23:30:46.256Z,99234.00
2019-01-26T23:33:16.477Z,99242.00
2019-01-26T23:35:46.618Z,99221.00
2019-01-26T23:38:16.698Z,99220.00
2019-01-26T23:40:46.808Z,99207.00
2019-01-26T23:43:16.887Z,99212.00
2019-01-26T23:45:46.986Z,99198.00
2019-01-26T23:48:17.090Z,99193.00
2019-01-26T23:50:47.169Z,99192.00
2019-01-26T23:53:17.332Z,99193.00
2019-01-26T23:55:47.432Z,99187.00
2019-01-26T23:58:17.603Z,99184.00
